createdAt,value
2024-01-29T00:05:08.186Z,1.10
2024-01-29T00:05:42.506Z,1.30
2024-01-29T00:06:16.003Z,1.50
2024-01-29T00:06:50.324Z,1.40
2024-01-29T00:07:24.283Z,1.50
2024-01-29T00:08:48.883Z,1.30
2024-01-29T00:09:23.397Z,1.30
2024-01-29T00:09:57.340Z,1.30
2024-01-29T00:10:31.697Z,1.40
2024-01-29T00:11:07.671Z,1.70
2024-01-29T00:12:32.084Z,1.60
2024-01-29T00:13:08.678Z,1.60
2024-01-29T00:13:46.267Z,1.50
2024-01-29T00:14:21.902Z,1.40
2024-01-29T00:16:08.230Z,1.50
2024-01-29T00:16:42.079Z,1.30
2024-01-29T00:17:15.916Z,1.30
2024-01-29T00:17:49.981Z,1.30
2024-01-29T00:18:23.716Z,1.40
2024-01-29T00:19:49.875Z,1.30
2024-01-29T00:20:23.830Z,1.30
2024-01-29T00:20:59.309Z,1.50
2024-01-29T00:21:33.386Z,1.20
2024-01-29T00:22:07.581Z,1.00
2024-01-29T00:23:29.493Z,1.40
2024-01-29T00:24:03.583Z,1.20
2024-01-29T00:24:38.680Z,1.20
2024-01-29T00:25:14.044Z,1.40
2024-01-29T00:25:48.492Z,1.30
2024-01-29T00:27:10.277Z,1.40
2024-01-29T00:27:44.547Z,2.20
2024-01-29T00:28:18.151Z,3.50
2024-01-29T00:28:51.955Z,1.70
2024-01-29T00:29:26.361Z,1.20
2024-01-29T00:30:49.471Z,1.50
2024-01-29T00:31:24.810Z,1.20
2024-01-29T00:31:59.916Z,1.20
2024-01-29T00:32:33.919Z,1.30
2024-01-29T00:33:07.766Z,1.20
2024-01-29T00:34:29.756Z,1.30
2024-01-29T00:35:04.511Z,1.40
2024-01-29T00:35:38.941Z,1.10
2024-01-29T00:36:12.792Z,1.40
2024-01-29T00:36:46.429Z,1.30
2024-01-29T00:38:09.303Z,1.20
2024-01-29T00:38:43.378Z,1.20
2024-01-29T00:39:16.906Z,1.20
2024-01-29T00:39:52.470Z,1.10
2024-01-29T00:40:26.713Z,1.20
2024-01-29T00:41:53.914Z,1.40
2024-01-29T00:42:27.780Z,1.20
2024-01-29T00:43:02.798Z,1.30
2024-01-29T00:43:36.565Z,1.10
2024-01-29T00:44:10.352Z,1.20
2024-01-29T00:45:31.938Z,1.20
2024-01-29T00:46:06.587Z,1.00
2024-01-29T00:46:41.391Z,1.10
2024-01-29T00:47:15.519Z,1.20
2024-01-29T00:47:49.544Z,1.30
2024-01-29T00:49:12.207Z,1.30
2024-01-29T00:49:46.497Z,1.10
2024-01-29T00:50:21.065Z,1.10
2024-01-29T00:50:54.522Z,1.10
2024-01-29T00:51:28.103Z,1.00
2024-01-29T00:52:53.566Z,1.00
2024-01-29T00:53:27.917Z,1.10
2024-01-29T00:54:01.317Z,1.10
2024-01-29T00:54:35.127Z,1.10
2024-01-29T00:55:09.177Z,1.20
2024-01-29T00:56:34.591Z,1.30
2024-01-29T00:57:08.799Z,1.20
2024-01-29T00:57:42.675Z,1.30
2024-01-29T00:58:16.748Z,1.10
2024-01-29T00:58:51.846Z,1.10
2024-01-29T01:11:10.319Z,2.90
2024-01-29T01:11:44.439Z,2.90
2024-01-29T01:12:17.833Z,2.10
2024-01-29T01:12:51.466Z,1.70
2024-01-29T01:13:25.818Z,1.20
2024-01-29T01:14:47.030Z,1.00
2024-01-29T01:15:21.849Z,1.00
2024-01-29T01:15:56.084Z,1.00
2024-01-29T01:16:29.867Z,1.20
2024-01-29T01:17:03.577Z,1.10
2024-01-29T01:18:28.214Z,1.00
2024-01-29T01:19:04.711Z,1.10
2024-01-29T01:19:38.305Z,1.30
2024-01-29T01:20:15.011Z,1.30
2024-01-29T01:20:48.897Z,1.30
2024-01-29T01:22:11.544Z,1.40
2024-01-29T01:22:45.581Z,2.00
2024-01-29T01:23:19.140Z,1.20
2024-01-29T01:23:52.860Z,1.40
2024-01-29T01:24:26.608Z,1.50
2024-01-29T01:25:53.555Z,1.20
2024-01-29T01:26:27.448Z,1.10
2024-01-29T01:27:00.857Z,1.10
2024-01-29T01:27:34.691Z,1.20
2024-01-29T01:28:10.406Z,1.10
2024-01-29T01:29:31.400Z,1.00
2024-01-29T01:30:08.235Z,1.00
2024-01-29T01:30:45.326Z,1.10
2024-01-29T01:31:21.813Z,1.20
2024-01-29T01:32:01.340Z,1.10
2024-01-29T01:47:52.673Z,1.30
2024-01-29T01:48:27.491Z,1.20
2024-01-29T01:49:01.945Z,1.40
2024-01-29T01:49:36.273Z,1.20
2024-01-29T01:50:11.357Z,1.60
2024-01-29T01:51:33.328Z,1.30
2024-01-29T01:52:08.257Z,1.10
2024-01-29T01:52:42.173Z,1.30
2024-01-29T01:53:16.054Z,1.30
2024-01-29T01:53:56.125Z,1.30
2024-01-29T01:55:15.763Z,1.10
2024-01-29T01:55:49.808Z,1.10
2024-01-29T01:56:24.247Z,1.30
2024-01-29T01:56:59.570Z,1.10
2024-01-29T01:57:34.266Z,1.20
2024-01-29T01:58:58.621Z,1.00
2024-01-29T01:59:37.168Z,0.90
2024-01-29T02:00:12.936Z,1.10
2024-01-29T02:00:47.622Z,1.00
2024-01-29T02:06:09.085Z,1.00
2024-01-29T02:06:43.007Z,1.10
2024-01-29T02:07:16.703Z,1.00
2024-01-29T02:07:50.597Z,1.10
2024-01-29T02:08:24.975Z,1.00
2024-01-29T02:09:51.075Z,1.20
2024-01-29T02:10:25.558Z,1.30
2024-01-29T02:11:02.125Z,1.00
2024-01-29T02:11:35.985Z,1.30
2024-01-29T02:12:10.318Z,1.30
2024-01-29T02:13:32.566Z,1.10
2024-01-29T02:14:06.747Z,1.10
2024-01-29T02:14:40.263Z,1.20
2024-01-29T02:15:13.748Z,1.00
2024-01-29T02:15:47.483Z,1.00
2024-01-29T02:17:08.834Z,1.20
2024-01-29T02:17:42.246Z,1.20
2024-01-29T02:18:16.349Z,1.20
2024-01-29T02:18:50.185Z,1.10
2024-01-29T02:19:24.477Z,1.30
2024-01-29T02:20:49.296Z,1.00
2024-01-29T02:21:24.162Z,1.20
2024-01-29T02:21:58.789Z,1.30
2024-01-29T02:22:32.784Z,1.20
2024-01-29T02:23:06.480Z,1.10
2024-01-29T02:24:32.270Z,1.20
2024-01-29T02:25:06.216Z,1.20
2024-01-29T02:25:40.146Z,0.80
2024-01-29T02:26:15.229Z,1.10
2024-01-29T02:26:49.358Z,1.10
2024-01-29T02:28:12.833Z,1.20
2024-01-29T02:28:46.556Z,0.90
2024-01-29T02:29:20.530Z,1.10
2024-01-29T02:29:54.888Z,1.00
2024-01-29T02:30:29.031Z,0.80
2024-01-29T02:31:50.080Z,1.10
2024-01-29T02:32:23.642Z,1.20
2024-01-29T02:32:58.673Z,1.40
2024-01-29T02:33:32.906Z,1.00
2024-01-29T02:34:07.191Z,0.90
2024-01-29T02:35:31.870Z,1.10
2024-01-29T02:36:06.815Z,0.90
2024-01-29T02:36:45.887Z,1.20
2024-01-29T02:37:21.129Z,1.00
2024-01-29T02:37:56.070Z,1.10
2024-01-29T02:50:08.734Z,0.70
2024-01-29T02:50:42.786Z,0.80
2024-01-29T02:51:16.867Z,0.70
2024-01-29T02:51:50.805Z,0.70
2024-01-29T02:52:24.284Z,0.80
2024-01-29T02:53:50.115Z,0.80
2024-01-29T02:54:24.435Z,0.90
2024-01-29T02:54:59.038Z,0.90
2024-01-29T02:55:33.226Z,0.90
2024-01-29T02:56:07.906Z,0.70
2024-01-29T02:57:32.080Z,0.80
2024-01-29T02:58:06.191Z,0.70
2024-01-29T02:58:39.820Z,0.80
2024-01-29T02:59:13.721Z,1.00
2024-01-29T02:59:47.803Z,0.80
2024-01-29T03:03:42.890Z,0.90
2024-01-29T03:04:18.784Z,0.70
2024-01-29T03:05:54.015Z,0.80
2024-01-29T03:06:27.983Z,0.90
2024-01-29T03:07:02.750Z,1.10
2024-01-29T03:07:38.522Z,0.80
2024-01-29T03:08:15.745Z,0.80
2024-01-29T03:09:33.475Z,1.00
2024-01-29T03:10:07.560Z,0.80
2024-01-29T03:10:41.345Z,0.70
2024-01-29T03:11:15.259Z,0.80
2024-01-29T03:11:49.459Z,1.00
2024-01-29T03:13:15.415Z,1.10
2024-01-29T03:13:49.825Z,1.00
2024-01-29T03:14:24.001Z,0.80
2024-01-29T03:14:57.794Z,0.80
2024-01-29T03:15:31.405Z,1.20
2024-01-29T03:16:56.887Z,1.60
2024-01-29T03:17:31.178Z,1.30
2024-01-29T03:18:07.914Z,1.10
2024-01-29T03:18:42.794Z,1.20
2024-01-29T03:19:16.476Z,1.20
2024-01-29T03:20:40.220Z,1.30
2024-01-29T03:21:15.311Z,2.00
2024-01-29T03:21:48.997Z,1.80
2024-01-29T03:22:22.703Z,1.30
2024-01-29T03:22:57.123Z,1.30
2024-01-29T03:24:18.204Z,1.20
2024-01-29T03:24:52.047Z,1.10
2024-01-29T03:25:25.777Z,1.20
2024-01-29T03:25:59.996Z,0.90
2024-01-29T03:26:33.891Z,0.90
2024-01-29T03:27:59.854Z,0.90
2024-01-29T03:28:33.772Z,1.20
2024-01-29T03:29:07.686Z,1.20
2024-01-29T03:29:41.328Z,1.00
2024-01-29T03:30:15.530Z,1.00
2024-01-29T03:31:36.193Z,1.20
2024-01-29T03:32:11.150Z,1.00
2024-01-29T03:32:44.825Z,1.00
2024-01-29T03:33:21.038Z,0.90
2024-01-29T03:33:55.583Z,0.90
2024-01-29T03:35:18.453Z,1.20
2024-01-29T03:35:52.180Z,0.80
2024-01-29T03:36:25.888Z,0.90
2024-01-29T03:37:00.431Z,0.60
2024-01-29T03:37:34.377Z,0.70
2024-01-29T03:39:05.063Z,2.00
2024-01-29T03:39:41.331Z,1.70
2024-01-29T03:40:15.692Z,1.30
2024-01-29T03:40:49.622Z,1.20
2024-01-29T03:41:23.177Z,1.10
2024-01-29T03:42:40.208Z,0.90
2024-01-29T03:43:14.198Z,1.50
2024-01-29T03:43:48.400Z,1.50
2024-01-29T03:44:22.158Z,1.50
2024-01-29T03:44:55.902Z,1.10
2024-01-29T03:46:25.074Z,0.80
2024-01-29T03:46:58.762Z,1.10
2024-01-29T03:47:32.637Z,1.20
2024-01-29T03:48:06.974Z,1.20
2024-01-29T03:48:41.255Z,2.10
2024-01-29T03:50:02.047Z,1.70
2024-01-29T03:50:35.999Z,1.70
2024-01-29T03:51:09.585Z,1.40
2024-01-29T03:51:43.396Z,1.80
2024-01-29T03:52:16.898Z,1.40
2024-01-29T03:53:45.090Z,1.50
2024-01-29T03:54:18.819Z,1.40
2024-01-29T03:54:53.965Z,1.50
2024-01-29T03:55:29.267Z,1.20
2024-01-29T03:56:05.037Z,1.40
2024-01-29T03:57:24.059Z,1.40
2024-01-29T03:57:58.602Z,1.10
2024-01-29T03:58:33.495Z,1.30
2024-01-29T03:59:12.737Z,1.30
2024-01-29T03:59:46.605Z,1.00
2024-01-29T04:01:06.118Z,1.10
2024-01-29T04:01:42.881Z,1.00
2024-01-29T04:02:16.672Z,1.10
2024-01-29T04:02:51.578Z,1.30
2024-01-29T04:03:26.509Z,1.10
2024-01-29T04:04:49.964Z,1.50
2024-01-29T04:05:24.431Z,1.70
2024-01-29T04:05:59.069Z,1.50
2024-01-29T04:06:33.163Z,1.80
2024-01-29T04:07:07.038Z,2.10
2024-01-29T04:08:31.830Z,1.70
2024-01-29T04:09:05.885Z,2.00
2024-01-29T04:09:40.319Z,1.60
2024-01-29T04:10:15.102Z,1.20
2024-01-29T04:10:49.247Z,1.00
2024-01-29T04:12:11.907Z,1.40
2024-01-29T04:12:46.675Z,1.20
2024-01-29T04:13:22.446Z,1.00
2024-01-29T04:13:58.849Z,1.30
2024-01-29T04:14:35.210Z,1.40
2024-01-29T04:15:51.680Z,1.00
2024-01-29T04:16:26.336Z,1.20
2024-01-29T04:17:00.400Z,0.90
2024-01-29T04:17:34.347Z,1.10
2024-01-29T04:18:08.215Z,1.00
2024-01-29T04:19:33.710Z,1.60
2024-01-29T04:20:08.691Z,1.10
2024-01-29T04:20:42.388Z,1.00
2024-01-29T04:21:16.799Z,1.10
2024-01-29T04:21:51.106Z,1.10
2024-01-29T04:23:12.273Z,1.20
2024-01-29T04:23:46.280Z,1.20
2024-01-29T04:24:20.611Z,1.30
2024-01-29T04:24:54.378Z,1.40
2024-01-29T04:25:28.270Z,1.60
2024-01-29T04:26:53.542Z,1.40
2024-01-29T04:27:27.237Z,1.60
2024-01-29T04:28:01.583Z,1.20
2024-01-29T04:28:35.336Z,1.40
2024-01-29T04:29:12.510Z,1.20
2024-01-29T04:30:37.384Z,1.10
2024-01-29T04:31:11.199Z,1.30
2024-01-29T04:31:44.976Z,1.20
2024-01-29T04:32:18.640Z,1.30
2024-01-29T04:32:52.074Z,1.30
2024-01-29T04:34:14.542Z,1.20
2024-01-29T04:34:49.397Z,1.10
2024-01-29T04:35:23.842Z,1.20
2024-01-29T04:35:57.825Z,1.30
2024-01-29T04:36:31.621Z,1.10
2024-01-29T04:37:52.613Z,1.30
2024-01-29T04:38:26.858Z,1.60
2024-01-29T04:39:00.998Z,1.20
2024-01-29T04:39:34.941Z,1.40
2024-01-29T04:40:10.003Z,1.40
2024-01-29T04:41:34.011Z,1.50
2024-01-29T04:42:09.155Z,1.60
2024-01-29T04:42:43.734Z,1.40
2024-01-29T04:43:17.823Z,1.50
2024-01-29T04:43:51.585Z,1.60
2024-01-29T04:45:14.850Z,1.40
2024-01-29T04:45:49.500Z,1.50
2024-01-29T04:46:25.756Z,1.40
2024-01-29T04:47:00.878Z,1.30
2024-01-29T04:47:36.328Z,1.70
2024-01-29T04:56:11.634Z,1.50
2024-01-29T04:56:45.572Z,1.30
2024-01-29T04:57:22.111Z,1.40
2024-01-29T04:57:56.274Z,1.40
2024-01-29T04:58:30.508Z,1.30
2024-01-29T04:59:53.832Z,1.20
2024-01-29T05:00:28.300Z,1.30
2024-01-29T05:01:03.132Z,1.20
2024-01-29T05:01:37.576Z,1.20
2024-01-29T05:02:12.398Z,1.30
